createdAt,value
2018-11-20T00:00:58.418Z,993.20
2018-11-20T00:01:58.437Z,993.21
2018-11-20T00:02:58.448Z,993.20
2018-11-20T00:03:58.465Z,993.19
2018-11-20T00:04:58.526Z,993.19
2018-11-20T00:05:58.501Z,993.18
2018-11-20T00:06:58.521Z,993.22
2018-11-20T00:07:58.537Z,993.21
2018-11-20T00:08:58.557Z,993.20
2018-11-20T00:09:58.573Z,993.21
2018-11-20T00:10:58.604Z,993.21
2018-11-20T00:11:58.605Z,993.24
2018-11-20T00:12:58.621Z,993.25
2018-11-20T00:13:58.637Z,993.27
2018-11-20T00:14:58.653Z,993.28
2018-11-20T00:15:58.673Z,993.23
2018-11-20T00:16:58.721Z,993.24
2018-11-20T00:17:58.713Z,993.21
2018-11-20T00:18:58.721Z,993.23
2018-11-20T00:19:58.741Z,993.21
2018-11-20T00:20:58.757Z,993.21
2018-11-20T00:21:58.775Z,993.21
2018-11-20T00:22:58.789Z,993.22
2018-11-20T00:23:58.815Z,993.19
2018-11-20T00:24:58.825Z,993.19
2018-11-20T00:25:58.844Z,993.19
2018-11-20T00:26:58.861Z,993.18
2018-11-20T00:27:58.881Z,993.21
2018-11-20T00:28:58.913Z,993.22
2018-11-20T00:29:58.909Z,993.18
2018-11-20T00:30:58.939Z,993.19
2018-11-20T00:31:58.945Z,993.20
2018-11-20T00:32:58.961Z,993.19
2018-11-20T00:33:58.985Z,993.20
2018-11-20T00:34:59.036Z,993.20
2018-11-20T00:35:59.011Z,993.19
2018-11-20T00:36:59.037Z,993.19
2018-11-20T00:37:59.048Z,993.18
2018-11-20T00:38:59.064Z,993.19
2018-11-20T00:39:59.089Z,993.16
2018-11-20T00:40:59.141Z,993.13
2018-11-20T00:41:59.117Z,993.16
2018-11-20T00:42:59.133Z,993.14
2018-11-20T00:43:59.153Z,993.10
2018-11-20T00:44:59.168Z,993.09
2018-11-20T00:45:59.189Z,993.06
2018-11-20T00:46:59.205Z,993.03
2018-11-20T00:47:59.221Z,993.02
2018-11-20T00:48:59.235Z,993.01
2018-11-20T00:49:59.261Z,992.98
2018-11-20T00:50:59.273Z,992.99
2018-11-20T00:51:59.285Z,992.95
2018-11-20T00:52:59.309Z,992.95
2018-11-20T00:53:59.324Z,992.93
2018-11-20T00:54:59.348Z,992.96
2018-11-20T00:55:59.353Z,992.99
2018-11-20T00:56:59.381Z,992.92
2018-11-20T00:57:59.389Z,992.93
2018-11-20T00:58:59.411Z,992.92
2018-11-20T00:59:59.421Z,992.95
2018-11-20T01:00:59.445Z,992.93
2018-11-20T01:01:59.457Z,992.90
2018-11-20T01:02:59.485Z,992.93
2018-11-20T01:03:59.505Z,992.91
2018-11-20T01:04:59.512Z,992.86
2018-11-20T01:05:59.529Z,992.87
2018-11-20T01:06:59.541Z,992.88
2018-11-20T01:07:59.559Z,992.87
2018-11-20T01:08:59.576Z,992.87
2018-11-20T01:09:59.640Z,992.84
2018-11-20T01:10:59.627Z,992.87
2018-11-20T01:11:59.633Z,992.89
2018-11-20T01:12:59.652Z,992.86
2018-11-20T01:13:59.668Z,992.82
2018-11-20T01:14:59.684Z,992.84
2018-11-20T01:15:59.753Z,992.84
2018-11-20T01:16:59.720Z,992.86
2018-11-20T01:17:59.733Z,992.87
2018-11-20T01:18:59.761Z,992.85
2018-11-20T01:19:59.788Z,992.87
2018-11-20T01:20:59.785Z,992.87
2018-11-20T01:21:59.840Z,992.84
2018-11-20T01:22:59.821Z,992.89
2018-11-20T01:23:59.830Z,992.85
2018-11-20T01:24:59.849Z,992.84
2018-11-20T01:25:59.865Z,992.84
2018-11-20T01:26:59.884Z,992.83
2018-11-20T01:27:59.929Z,992.85
2018-11-20T01:28:59.917Z,992.84
2018-11-20T01:29:59.940Z,992.89
2018-11-20T01:30:59.953Z,992.87
2018-11-20T01:31:59.969Z,992.86
2018-11-20T01:32:59.996Z,992.89
2018-11-20T01:34:00.030Z,992.87
2018-11-20T01:35:00.030Z,992.88
2018-11-20T01:36:00.040Z,992.92
2018-11-20T01:37:00.060Z,992.89
2018-11-20T01:38:00.073Z,992.89
2018-11-20T01:39:00.091Z,992.93
2018-11-20T01:40:00.136Z,992.93
2018-11-20T01:41:00.125Z,992.92
2018-11-20T01:42:00.146Z,992.96
2018-11-20T01:43:00.154Z,992.98
2018-11-20T01:44:00.182Z,993.00
2018-11-20T01:45:00.194Z,993.00
2018-11-20T01:46:00.213Z,993.01
2018-11-20T01:47:00.228Z,993.00
2018-11-20T01:48:00.245Z,993.03
2018-11-20T01:49:00.263Z,992.98
2018-11-20T01:50:00.282Z,993.02
2018-11-20T01:51:00.294Z,993.01
2018-11-20T01:52:00.310Z,992.97
2018-11-20T01:53:00.334Z,993.09
2018-11-20T01:54:00.365Z,992.99
2018-11-20T01:55:00.365Z,993.11
2018-11-20T01:56:00.383Z,993.09
2018-11-20T01:57:00.393Z,993.13
2018-11-20T01:58:00.414Z,993.07
2018-11-20T01:59:00.424Z,993.05
2018-11-20T02:00:00.445Z,993.04
2018-11-20T02:01:00.460Z,993.05
2018-11-20T02:02:00.481Z,993.02
2018-11-20T02:03:00.530Z,993.02
2018-11-20T02:04:00.557Z,993.05
2018-11-20T02:05:00.525Z,993.05
2018-11-20T02:06:00.554Z,993.04
2018-11-20T02:07:00.566Z,993.06
2018-11-20T02:08:00.586Z,993.07
2018-11-20T02:09:00.657Z,993.06
2018-11-20T02:10:00.622Z,993.08
2018-11-20T02:11:00.634Z,993.05
2018-11-20T02:12:00.650Z,993.05
2018-11-20T02:13:00.666Z,993.04
2018-11-20T02:14:00.686Z,993.04
2018-11-20T02:15:00.715Z,993.04
2018-11-20T02:16:00.722Z,993.03
2018-11-20T02:17:00.744Z,993.00
2018-11-20T02:18:00.750Z,993.03
2018-11-20T02:19:00.774Z,993.00
2018-11-20T02:20:00.783Z,993.01
2018-11-20T02:21:00.807Z,993.02
2018-11-20T02:22:00.815Z,993.02
2018-11-20T02:23:00.838Z,993.03
2018-11-20T02:24:00.866Z,993.03
2018-11-20T02:25:00.874Z,993.05
2018-11-20T02:26:00.882Z,992.98
2018-11-20T02:27:00.898Z,993.01
2018-11-20T02:28:00.925Z,992.97
2018-11-20T02:29:00.938Z,992.94
2018-11-20T02:30:00.953Z,992.97
2018-11-20T02:31:00.971Z,992.94
2018-11-20T02:32:01.037Z,992.99
2018-11-20T02:33:01.002Z,992.97
2018-11-20T02:34:01.026Z,993.02
2018-11-20T02:35:01.043Z,992.99
2018-11-20T02:36:01.066Z,992.97
2018-11-20T02:37:01.070Z,992.93
2018-11-20T02:38:01.092Z,992.97
2018-11-20T02:39:01.156Z,992.97
2018-11-20T02:40:01.129Z,993.01
2018-11-20T02:41:01.143Z,993.02
2018-11-20T02:42:01.162Z,993.00
2018-11-20T02:43:01.179Z,993.02
2018-11-20T02:44:01.200Z,993.01
2018-11-20T02:45:01.255Z,993.03
2018-11-20T02:46:01.226Z,993.02
2018-11-20T02:47:01.242Z,993.02
2018-11-20T02:48:01.267Z,993.02
2018-11-20T02:49:01.280Z,993.04
2018-11-20T02:50:01.301Z,993.01
2018-11-20T02:51:01.331Z,993.02
2018-11-20T02:52:01.338Z,993.05
2018-11-20T02:53:01.352Z,993.05
2018-11-20T02:54:01.364Z,993.01
2018-11-20T02:55:01.388Z,993.02
2018-11-20T02:56:01.399Z,993.06
2018-11-20T02:57:01.453Z,993.01
2018-11-20T02:58:01.431Z,993.06
2018-11-20T02:59:01.455Z,993.04
2018-11-20T03:00:01.476Z,993.06
2018-11-20T03:01:01.483Z,993.05
2018-11-20T03:02:01.503Z,993.02
2018-11-20T03:03:01.617Z,993.08
2018-11-20T03:04:01.536Z,993.08
2018-11-20T03:05:01.557Z,993.07
2018-11-20T03:06:01.567Z,993.07
2018-11-20T03:07:01.643Z,993.09
2018-11-20T03:08:01.604Z,993.13
2018-11-20T03:09:01.747Z,993.07
2018-11-20T03:10:01.639Z,993.07
2018-11-20T03:11:01.653Z,993.10
2018-11-20T03:12:01.671Z,993.14
2018-11-20T03:13:01.689Z,993.09
2018-11-20T03:14:01.702Z,993.07
2018-11-20T03:15:01.776Z,993.07
2018-11-20T03:16:01.748Z,993.11
2018-11-20T03:17:01.759Z,993.11
2018-11-20T03:18:01.771Z,993.05
2018-11-20T03:19:01.793Z,993.11
2018-11-20T03:20:01.811Z,993.08
2018-11-20T03:21:01.823Z,993.08
2018-11-20T03:22:01.847Z,993.04
2018-11-20T03:23:01.856Z,993.07
2018-11-20T03:24:01.876Z,993.02
2018-11-20T03:25:01.900Z,993.05
2018-11-20T03:26:01.911Z,993.00
2018-11-20T03:27:02.114Z,993.03
2018-11-20T03:28:01.937Z,993.04
2018-11-20T03:29:01.960Z,993.07
2018-11-20T03:30:01.973Z,993.08
2018-11-20T03:31:01.989Z,993.07
2018-11-20T03:32:02.012Z,993.11
2018-11-20T03:33:02.027Z,993.08
2018-11-20T03:34:02.037Z,993.10
2018-11-20T03:35:02.062Z,993.07
2018-11-20T03:36:02.136Z,993.04
2018-11-20T03:37:02.092Z,993.07
2018-11-20T03:38:02.111Z,993.07
2018-11-20T03:39:02.128Z,993.05
2018-11-20T03:40:02.147Z,993.07
2018-11-20T03:41:02.164Z,993.08
2018-11-20T03:42:02.175Z,993.05
2018-11-20T03:43:02.199Z,993.04
2018-11-20T03:44:02.211Z,993.02
2018-11-20T03:45:02.232Z,993.05
2018-11-20T03:46:02.240Z,993.05
2018-11-20T03:47:02.265Z,993.04
2018-11-20T03:48:02.391Z,993.01
2018-11-20T03:49:02.299Z,993.05
2018-11-20T03:50:02.429Z,993.00
2018-11-20T03:51:02.332Z,993.05
2018-11-20T03:52:02.357Z,993.05
2018-11-20T03:53:02.367Z,993.07
2018-11-20T03:54:02.380Z,993.06
2018-11-20T03:55:02.400Z,993.05
2018-11-20T03:56:02.477Z,993.10
2018-11-20T03:57:02.428Z,993.09
2018-11-20T03:58:02.454Z,993.05
2018-11-20T03:59:02.464Z,993.10
2018-11-20T04:00:02.481Z,993.05
2018-11-20T04:01:02.509Z,993.08
2018-11-20T04:02:02.511Z,993.07
2018-11-20T04:03:02.529Z,993.11
2018-11-20T04:04:02.551Z,993.06
2018-11-20T04:05:02.571Z,993.06
2018-11-20T04:06:02.579Z,993.08
2018-11-20T04:07:02.601Z,993.08
2018-11-20T04:08:02.625Z,993.09
2018-11-20T04:09:02.644Z,993.08
2018-11-20T04:10:02.649Z,993.11
2018-11-20T04:11:02.669Z,993.12
2018-11-20T04:12:02.691Z,993.09
2018-11-20T04:13:02.769Z,993.08
2018-11-20T04:14:02.720Z,993.16
2018-11-20T04:15:02.731Z,993.13
2018-11-20T04:16:02.759Z,993.17
2018-11-20T04:17:02.768Z,993.14
2018-11-20T04:18:02.887Z,993.11
2018-11-20T04:19:02.836Z,993.11
2018-11-20T04:20:02.819Z,993.11
2018-11-20T04:21:02.832Z,993.11
2018-11-20T04:22:02.852Z,993.15
2018-11-20T04:23:02.876Z,993.17
2018-11-20T04:24:02.892Z,993.16
2018-11-20T04:25:02.927Z,993.13
2018-11-20T04:26:02.913Z,993.15
2018-11-20T04:27:02.930Z,993.17
2018-11-20T04:28:02.952Z,993.22
2018-11-20T04:29:02.963Z,993.19
2018-11-20T04:30:02.983Z,993.20
2018-11-20T04:31:03.036Z,993.18
2018-11-20T04:32:03.016Z,993.21
2018-11-20T04:33:03.032Z,993.17
2018-11-20T04:34:03.052Z,993.20
2018-11-20T04:35:03.067Z,993.23
2018-11-20T04:36:03.080Z,993.25
2018-11-20T04:37:03.132Z,993.26
2018-11-20T04:38:03.116Z,993.28
2018-11-20T04:39:03.139Z,993.26
2018-11-20T04:40:03.152Z,993.28
2018-11-20T04:41:03.181Z,993.31
2018-11-20T04:42:03.184Z,993.26
2018-11-20T04:43:03.252Z,993.26
2018-11-20T04:44:03.220Z,993.28
2018-11-20T04:45:03.231Z,993.30
2018-11-20T04:46:03.255Z,993.31
2018-11-20T04:47:03.268Z,993.32
2018-11-20T04:48:03.284Z,993.30
2018-11-20T04:49:03.330Z,993.35
2018-11-20T04:50:03.375Z,993.35
2018-11-20T04:51:03.336Z,993.37
2018-11-20T04:52:03.363Z,993.34
2018-11-20T04:53:03.377Z,993.37
2018-11-20T04:54:03.391Z,993.34
2018-11-20T04:55:03.411Z,993.35
2018-11-20T04:56:03.416Z,993.33
2018-11-20T04:57:03.436Z,993.38
2018-11-20T04:58:03.457Z,993.41
2018-11-20T04:59:03.484Z,993.43
2018-11-20T05:00:03.484Z,993.41
2018-11-20T05:01:03.504Z,993.40
2018-11-20T05:02:03.522Z,993.44
2018-11-20T05:03:03.534Z,993.41
2018-11-20T05:04:03.558Z,993.43
2018-11-20T05:05:03.577Z,993.43
2018-11-20T05:06:03.606Z,993.41
2018-11-20T05:07:03.600Z,993.39
2018-11-20T05:08:03.616Z,993.40
2018-11-20T05:09:03.640Z,993.41
2018-11-20T05:10:03.660Z,993.40
2018-11-20T05:11:03.676Z,993.40
2018-11-20T05:12:03.713Z,993.39
2018-11-20T05:13:03.721Z,993.36
2018-11-20T05:14:03.719Z,993.36
2018-11-20T05:15:03.750Z,993.38
2018-11-20T05:16:03.805Z,993.37
2018-11-20T05:17:03.777Z,993.39
2018-11-20T05:18:03.785Z,993.41
2018-11-20T05:19:03.808Z,993.36
2018-11-20T05:20:03.823Z,993.38
2018-11-20T05:21:03.840Z,993.39
2018-11-20T05:22:03.856Z,993.44
2018-11-20T05:23:03.879Z,993.40
2018-11-20T05:24:03.916Z,993.40
2018-11-20T05:25:03.916Z,993.41
2018-11-20T05:26:03.921Z,993.42
2018-11-20T05:27:03.932Z,993.46
2018-11-20T05:28:04.152Z,993.44
2018-11-20T05:29:03.972Z,993.46
2018-11-20T05:30:03.995Z,993.46
2018-11-20T05:31:04.088Z,993.48
2018-11-20T05:32:04.020Z,993.47
2018-11-20T05:33:04.032Z,993.47
2018-11-20T05:34:04.057Z,993.47
2018-11-20T05:35:04.069Z,993.48
2018-11-20T05:36:04.152Z,993.46
2018-11-20T05:37:04.106Z,993.48
2018-11-20T05:38:04.120Z,993.45
2018-11-20T05:39:04.140Z,993.42
2018-11-20T05:40:04.152Z,993.43
2018-11-20T05:41:04.173Z,993.37
2018-11-20T05:42:04.212Z,993.42
2018-11-20T05:43:04.204Z,993.37
2018-11-20T05:44:04.227Z,993.37
2018-11-20T05:45:04.245Z,993.37
2018-11-20T05:46:04.257Z,993.35
2018-11-20T05:47:04.277Z,993.34
2018-11-20T05:48:04.285Z,993.38
2018-11-20T05:49:04.304Z,993.36
2018-11-20T05:50:04.325Z,993.32
2018-11-20T05:51:04.345Z,993.39
2018-11-20T05:52:04.351Z,993.36
2018-11-20T05:53:04.377Z,993.36
2018-11-20T05:54:04.398Z,993.44
2018-11-20T05:55:04.417Z,993.45
2018-11-20T05:56:04.440Z,993.43
2018-11-20T05:57:04.437Z,993.45
2018-11-20T05:58:04.556Z,993.41
2018-11-20T05:59:04.473Z,993.42
2018-11-20T06:00:04.483Z,993.41
2018-11-20T06:01:04.501Z,993.41
2018-11-20T06:02:04.520Z,993.43
2018-11-20T06:03:04.539Z,993.39
2018-11-20T06:04:04.560Z,993.41
2018-11-20T06:05:04.576Z,993.38
2018-11-20T06:06:04.621Z,993.36
2018-11-20T06:07:04.604Z,993.36
2018-11-20T06:08:04.628Z,993.35
2018-11-20T06:09:04.641Z,993.35
2018-11-20T06:10:04.653Z,993.35
2018-11-20T06:11:04.676Z,993.34
2018-11-20T06:12:04.689Z,993.30
2018-11-20T06:13:04.708Z,993.32
2018-11-20T06:14:04.725Z,993.34
2018-11-20T06:15:04.748Z,993.32
2018-11-20T06:16:04.836Z,993.37
2018-11-20T06:17:04.781Z,993.36
2018-11-20T06:18:04.792Z,993.34
2018-11-20T06:19:04.832Z,993.38
2018-11-20T06:20:04.824Z,993.38
2018-11-20T06:21:04.840Z,993.41
2018-11-20T06:22:04.905Z,993.34
2018-11-20T06:23:04.875Z,993.36
2018-11-20T06:24:04.888Z,993.38
2018-11-20T06:25:04.911Z,993.41
2018-11-20T06:26:04.932Z,993.37
2018-11-20T06:27:04.940Z,993.33
2018-11-20T06:28:04.984Z,993.30
2018-11-20T06:29:05.024Z,993.33
2018-11-20T06:30:04.993Z,993.33
2018-11-20T06:31:05.009Z,993.36
2018-11-20T06:32:05.025Z,993.29
2018-11-20T06:33:05.045Z,993.29
2018-11-20T06:34:05.121Z,993.34
2018-11-20T06:35:05.226Z,993.36
2018-11-20T06:36:05.092Z,993.38
2018-11-20T06:37:05.112Z,993.32
2018-11-20T06:38:05.121Z,993.35
2018-11-20T06:39:05.145Z,993.39
2018-11-20T06:40:05.185Z,993.36
2018-11-20T06:41:05.225Z,993.36
2018-11-20T06:42:05.196Z,993.39
2018-11-20T06:43:05.204Z,993.36
2018-11-20T06:44:05.220Z,993.35
2018-11-20T06:45:05.242Z,993.38
2018-11-20T06:46:05.293Z,993.38
2018-11-20T06:47:05.285Z,993.44
2018-11-20T06:48:05.294Z,993.42
2018-11-20T06:49:05.309Z,993.46
2018-11-20T06:50:05.332Z,993.42
2018-11-20T06:51:05.348Z,993.51
2018-11-20T06:52:05.408Z,993.47
2018-11-20T06:53:05.581Z,993.48
2018-11-20T06:54:05.394Z,993.48
2018-11-20T06:55:05.429Z,993.52
2018-11-20T06:56:05.424Z,993.49
2018-11-20T06:57:05.451Z,993.52
2018-11-20T06:58:05.499Z,993.52
2018-11-20T06:59:05.489Z,993.52
2018-11-20T07:00:05.490Z,993.55
2018-11-20T07:01:05.510Z,993.57
2018-11-20T07:02:05.530Z,993.55
2018-11-20T07:03:05.540Z,993.58
2018-11-20T07:04:05.562Z,993.61
2018-11-20T07:05:05.577Z,993.61
2018-11-20T07:06:05.589Z,993.60
2018-11-20T07:07:05.654Z,993.60
2018-11-20T07:08:05.781Z,993.63
2018-11-20T07:09:05.641Z,993.63
2018-11-20T07:10:05.729Z,993.66
2018-11-20T07:11:05.673Z,993.66
2018-11-20T07:12:05.697Z,993.68
2018-11-20T07:13:05.712Z,993.66
2018-11-20T07:14:05.726Z,993.63
2018-11-20T07:15:05.809Z,993.65
2018-11-20T07:16:06.142Z,993.65
2018-11-20T07:17:05.783Z,993.70
2018-11-20T07:18:05.796Z,993.64
2018-11-20T07:19:05.813Z,993.65
2018-11-20T07:20:05.833Z,993.64
2018-11-20T07:21:05.841Z,993.66
2018-11-20T07:22:05.861Z,993.65
2018-11-20T07:23:05.881Z,993.63
2018-11-20T07:24:05.898Z,993.63
2018-11-20T07:25:05.917Z,993.60
2018-11-20T07:26:05.930Z,993.60
2018-11-20T07:27:05.945Z,993.54
2018-11-20T07:28:05.965Z,993.57
2018-11-20T07:29:05.973Z,993.61
2018-11-20T07:30:06.065Z,993.61
2018-11-20T07:31:06.057Z,993.65
2018-11-20T07:32:06.024Z,993.70
2018-11-20T07:33:06.049Z,993.70
2018-11-20T07:34:06.065Z,993.77
2018-11-20T07:35:06.075Z,993.77
2018-11-20T07:36:06.173Z,993.80
2018-11-20T07:37:06.364Z,993.83
2018-11-20T07:38:06.130Z,993.84
2018-11-20T07:39:06.145Z,993.88
2018-11-20T07:40:06.161Z,993.90
2018-11-20T07:41:06.180Z,993.89
2018-11-20T07:42:06.197Z,993.88
2018-11-20T07:43:06.216Z,993.90
2018-11-20T07:44:06.375Z,993.86
2018-11-20T07:45:06.258Z,993.92
2018-11-20T07:46:06.265Z,993.90
2018-11-20T07:47:06.285Z,993.93
2018-11-20T07:48:06.297Z,993.92
2018-11-20T07:49:06.321Z,993.93
2018-11-20T07:50:06.333Z,993.95
2018-11-20T07:51:06.353Z,993.94
2018-11-20T07:52:06.380Z,993.95
2018-11-20T07:53:06.381Z,993.99
2018-11-20T07:54:06.397Z,993.97
2018-11-20T07:55:06.476Z,993.96
2018-11-20T07:56:06.559Z,993.95
2018-11-20T07:57:06.477Z,993.97
2018-11-20T07:58:06.473Z,994.00
2018-11-20T07:59:06.480Z,994.03
2018-11-20T08:00:06.502Z,994.06
2018-11-20T08:01:06.513Z,994.05
2018-11-20T08:02:06.575Z,994.03
2018-11-20T08:03:06.601Z,994.03
2018-11-20T08:04:06.577Z,994.08
2018-11-20T08:05:06.589Z,994.04
2018-11-20T08:06:06.605Z,994.09
2018-11-20T08:07:06.614Z,994.06
2018-11-20T08:08:06.637Z,994.07
2018-11-20T08:09:06.699Z,994.05
2018-11-20T08:10:06.682Z,994.08
2018-11-20T08:11:06.693Z,994.10
2018-11-20T08:12:06.715Z,994.09
2018-11-20T08:13:06.725Z,994.14
2018-11-20T08:14:06.746Z,994.12
2018-11-20T08:15:06.815Z,994.16
2018-11-20T08:16:06.882Z,994.15
2018-11-20T08:17:06.800Z,994.20
2018-11-20T08:18:06.816Z,994.22
2018-11-20T08:19:06.840Z,994.22
2018-11-20T08:20:06.857Z,994.22
2018-11-20T08:21:06.917Z,994.22
2018-11-20T08:22:06.901Z,994.22
2018-11-20T08:23:06.912Z,994.19
2018-11-20T08:24:06.932Z,994.21
2018-11-20T08:25:07.003Z,994.20
2018-11-20T08:26:07.162Z,994.23
2018-11-20T08:27:06.984Z,994.25
2018-11-20T08:28:07.009Z,994.22
2018-11-20T08:29:07.021Z,994.22
2018-11-20T08:30:07.053Z,994.26
2018-11-20T08:31:07.153Z,994.26
2018-11-20T08:32:07.081Z,994.29
2018-11-20T08:33:07.144Z,994.32
2018-11-20T08:34:07.196Z,994.35
2018-11-20T08:35:07.281Z,994.35
2018-11-20T08:36:07.157Z,994.35
2018-11-20T08:37:07.259Z,994.34
2018-11-20T08:38:07.231Z,994.35
2018-11-20T08:39:07.225Z,994.33
2018-11-20T08:40:07.241Z,994.31
2018-11-20T08:41:07.265Z,994.32
2018-11-20T08:42:07.298Z,994.37
2018-11-20T08:43:07.302Z,994.38
2018-11-20T08:44:07.390Z,994.36
2018-11-20T08:45:07.399Z,994.42
2018-11-20T08:46:07.364Z,994.44
2018-11-20T08:47:07.526Z,994.44
2018-11-20T08:48:07.494Z,994.46
2018-11-20T08:49:07.419Z,994.46
2018-11-20T08:50:07.458Z,994.45
2018-11-20T08:51:07.463Z,994.50
2018-11-20T08:52:07.493Z,994.47
2018-11-20T08:53:07.511Z,994.50
2018-11-20T08:54:07.535Z,994.44
2018-11-20T08:55:07.554Z,994.47
2018-11-20T08:56:07.577Z,994.54
2018-11-20T08:57:07.593Z,994.55
2018-11-20T08:58:07.607Z,994.58
2018-11-20T08:59:07.625Z,994.55
2018-11-20T09:00:07.651Z,994.60
2018-11-20T09:01:07.676Z,994.61
2018-11-20T09:02:07.794Z,994.64
2018-11-20T09:03:07.754Z,994.66
2018-11-20T09:04:07.734Z,994.62
2018-11-20T09:05:07.758Z,994.63
2018-11-20T09:06:07.777Z,994.55
2018-11-20T09:07:07.794Z,994.57
2018-11-20T09:08:07.863Z,994.63
2018-11-20T09:09:07.841Z,994.58
2018-11-20T09:10:07.940Z,994.63
2018-11-20T09:11:07.884Z,994.66
2018-11-20T09:12:07.897Z,994.66
2018-11-20T09:13:07.921Z,994.63
2018-11-20T09:14:07.937Z,994.67
2018-11-20T09:15:07.964Z,994.63
2018-11-20T09:16:07.978Z,994.70
2018-11-20T09:17:07.998Z,994.63
2018-11-20T09:18:08.024Z,994.68
2018-11-20T09:19:08.085Z,994.71
2018-11-20T09:20:08.114Z,994.71
2018-11-20T09:21:08.105Z,994.70
2018-11-20T09:22:08.105Z,994.68
2018-11-20T09:23:08.120Z,994.70
2018-11-20T09:24:08.160Z,994.71
2018-11-20T09:25:08.181Z,994.73
2018-11-20T09:26:08.174Z,994.72
2018-11-20T09:27:08.201Z,994.82
2018-11-20T09:28:08.365Z,994.77
2018-11-20T09:29:08.248Z,994.73
2018-11-20T09:30:08.254Z,994.68
2018-11-20T09:31:08.357Z,994.71
2018-11-20T09:32:08.300Z,994.69
2018-11-20T09:33:08.323Z,994.70
2018-11-20T09:34:08.364Z,994.66
2018-11-20T09:35:08.515Z,994.66
2018-11-20T09:36:08.377Z,994.64
2018-11-20T09:37:08.397Z,994.67
2018-11-20T09:38:08.413Z,994.64
2018-11-20T09:39:08.433Z,994.70
2018-11-20T09:40:08.454Z,994.73
2018-11-20T09:41:08.476Z,994.74
2018-11-20T09:42:08.487Z,994.73
2018-11-20T09:43:08.503Z,994.72
2018-11-20T09:44:08.531Z,994.75
2018-11-20T09:45:08.554Z,994.77
2018-11-20T09:46:08.564Z,994.78
2018-11-20T09:47:08.739Z,994.76
2018-11-20T09:48:08.603Z,994.78
2018-11-20T09:49:08.631Z,994.71
2018-11-20T09:50:08.642Z,994.63
2018-11-20T09:51:08.662Z,994.70
2018-11-20T09:52:08.698Z,994.66
2018-11-20T09:53:08.697Z,994.72
2018-11-20T09:54:08.757Z,994.76
2018-11-20T09:55:08.746Z,994.69
2018-11-20T09:56:08.758Z,994.76
2018-11-20T09:57:08.775Z,994.74
2018-11-20T09:58:08.798Z,994.74
2018-11-20T09:59:08.869Z,994.78
2018-11-20T10:00:08.886Z,994.83
2018-11-20T10:01:08.850Z,994.85
2018-11-20T10:02:08.870Z,994.81
2018-11-20T10:03:08.891Z,994.80
2018-11-20T10:04:08.916Z,994.80
2018-11-20T10:05:08.933Z,994.81
2018-11-20T10:06:09.026Z,994.84
2018-11-20T10:07:09.048Z,994.86
2018-11-20T10:08:08.986Z,994.85
2018-11-20T10:09:09.010Z,994.76
2018-11-20T10:10:09.039Z,994.75
2018-11-20T10:11:09.046Z,994.83
2018-11-20T10:12:09.064Z,994.79
2018-11-20T10:13:09.083Z,994.77
2018-11-20T10:14:09.265Z,994.83
2018-11-20T10:15:09.226Z,994.87
2018-11-20T10:16:09.142Z,994.86
2018-11-20T10:17:09.160Z,994.84
2018-11-20T10:18:09.179Z,994.88
2018-11-20T10:19:09.196Z,994.91
2018-11-20T10:20:09.215Z,995.00
2018-11-20T10:21:09.233Z,994.93
2018-11-20T10:22:09.403Z,994.97
2018-11-20T10:23:09.274Z,995.03
2018-11-20T10:24:09.289Z,995.01
2018-11-20T10:25:09.348Z,994.95
2018-11-20T10:26:09.534Z,994.94
2018-11-20T10:27:09.351Z,994.99
2018-11-20T10:28:09.374Z,995.06
2018-11-20T10:29:09.456Z,995.00
2018-11-20T10:31:09.423Z,995.06
2018-11-20T10:32:09.441Z,995.09
2018-11-20T10:33:09.460Z,995.04
2018-11-20T10:34:09.502Z,995.02
2018-11-20T10:35:09.547Z,995.08
2018-11-20T10:36:09.515Z,995.05
2018-11-20T10:37:09.539Z,995.07
2018-11-20T10:38:09.551Z,995.11
2018-11-20T10:39:09.575Z,995.09
2018-11-20T10:40:09.586Z,995.13
2018-11-20T10:41:09.624Z,995.15
2018-11-20T10:42:09.624Z,995.15
2018-11-20T10:43:09.647Z,995.12
2018-11-20T10:44:09.664Z,995.12
2018-11-20T10:45:09.683Z,995.13
2018-11-20T10:46:09.767Z,995.11
2018-11-20T10:47:09.718Z,995.14
2018-11-20T10:48:09.742Z,995.20
2018-11-20T10:49:09.756Z,995.21
2018-11-20T10:50:09.776Z,995.26
2018-11-20T10:51:09.859Z,995.26
2018-11-20T10:52:09.819Z,995.25
2018-11-20T10:53:09.835Z,995.21
2018-11-20T10:54:09.857Z,995.19
2018-11-20T10:55:09.870Z,995.34
2018-11-20T10:56:09.898Z,995.28
2018-11-20T10:57:09.915Z,995.37
2018-11-20T10:58:09.987Z,995.36
2018-11-20T10:59:09.943Z,995.30
2018-11-20T11:00:09.980Z,995.41
2018-11-20T11:01:09.983Z,995.37
2018-11-20T11:02:10.005Z,995.29
2018-11-20T11:03:10.028Z,995.33
2018-11-20T11:04:10.055Z,995.28
2018-11-20T11:05:10.179Z,995.30
2018-11-20T11:06:10.138Z,995.32
2018-11-20T11:07:10.539Z,995.26
2018-11-20T11:08:10.228Z,995.30
2018-11-20T11:09:10.135Z,995.25
2018-11-20T11:10:10.158Z,995.35
2018-11-20T11:11:10.170Z,995.38
2018-11-20T11:12:10.298Z,995.38
2018-11-20T11:13:10.216Z,995.44
2018-11-20T11:14:10.235Z,995.47
2018-11-20T11:15:10.264Z,995.38
2018-11-20T11:16:10.269Z,995.47
2018-11-20T11:17:10.282Z,995.53
2018-11-20T11:18:10.322Z,995.50
2018-11-20T11:19:10.323Z,995.51
2018-11-20T11:20:10.349Z,995.52
2018-11-20T11:21:10.473Z,995.53
2018-11-20T11:22:10.381Z,995.49
2018-11-20T11:23:10.402Z,995.57
2018-11-20T11:24:10.429Z,995.50
2018-11-20T11:25:10.440Z,995.50
2018-11-20T11:26:10.462Z,995.47
2018-11-20T11:27:10.481Z,995.53
2018-11-20T11:28:10.495Z,995.52
2018-11-20T11:29:11.527Z,995.49
2018-11-20T11:30:10.542Z,995.50
2018-11-20T11:31:10.562Z,995.49
2018-11-20T11:32:10.601Z,995.51
2018-11-20T11:33:10.594Z,995.49
2018-11-20T11:34:10.615Z,995.37
2018-11-20T11:35:10.637Z,995.37
2018-11-20T11:36:10.653Z,995.29
2018-11-20T11:37:10.678Z,995.39
2018-11-20T11:38:10.773Z,995.35
2018-11-20T11:39:10.717Z,995.34
2018-11-20T11:40:10.738Z,995.36
2018-11-20T11:41:10.755Z,995.37
2018-11-20T11:42:10.777Z,995.32
2018-11-20T11:43:10.799Z,995.35
2018-11-20T11:44:10.823Z,995.34
2018-11-20T11:45:10.837Z,995.29
2018-11-20T11:46:10.862Z,995.27
2018-11-20T11:47:10.880Z,995.34
2018-11-20T11:48:10.915Z,995.25
2018-11-20T11:49:10.936Z,995.35
2018-11-20T11:50:10.933Z,995.27
2018-11-20T11:51:10.957Z,995.27
2018-11-20T11:52:10.971Z,995.13
2018-11-20T11:53:10.996Z,995.11
2018-11-20T11:54:11.013Z,995.16
2018-11-20T11:55:11.086Z,995.08
2018-11-20T11:56:11.054Z,995.08
2018-11-20T11:57:11.075Z,995.10
2018-11-20T11:58:11.098Z,995.16
2018-11-20T11:59:11.106Z,995.19
2018-11-20T12:00:11.130Z,995.09
2018-11-20T12:01:11.150Z,995.12
2018-11-20T12:03:11.191Z,995.19
2018-11-20T12:04:11.210Z,995.16
2018-11-20T12:05:11.227Z,995.20
2018-11-20T12:06:11.241Z,995.22
2018-11-20T12:07:11.263Z,995.21
2018-11-20T12:08:11.279Z,995.22
2018-11-20T12:09:11.299Z,995.14
2018-11-20T12:10:11.319Z,995.11
2018-11-20T12:11:11.340Z,995.14
2018-11-20T12:12:11.358Z,995.20
2018-11-20T12:14:11.398Z,995.17
2018-11-20T12:15:11.414Z,995.15
2018-11-20T12:16:11.434Z,995.20
2018-11-20T12:17:11.448Z,995.16
2018-11-20T12:18:11.514Z,995.01
2018-11-20T12:19:11.490Z,995.14
2018-11-20T12:20:11.507Z,995.08
2018-11-20T12:21:11.525Z,995.11
2018-11-20T12:22:11.554Z,995.13
2018-11-20T12:23:11.566Z,995.08
2018-11-20T12:24:11.585Z,995.08
2018-11-20T12:25:11.604Z,994.96
2018-11-20T12:26:11.626Z,994.87
2018-11-20T12:27:11.638Z,994.90
2018-11-20T12:28:11.660Z,994.92
2018-11-20T12:29:11.682Z,994.82
2018-11-20T12:30:13.444Z,994.91
2018-11-20T12:31:11.878Z,994.90
2018-11-20T12:32:11.742Z,994.84